Terminal Aerodrome Forecast
Issued by NWS

Home | Current Version | Previous Version | Text Only | Print | Product List | Glossary On
Versions: 1 2 3 4 5 6 7 8 9 10 11 12
000
FTUS44 KLIX 272300
TAFMSY
TAF
KMSY 272323Z 2800/2824 01008KT P6SM SKC
     FM280600 05009KT P6SM SKC
     FM281900 11006KT P6SM SKC=

USA.gov is the U.S. government's official web portal to all federal, state and local government web resources and services.